createdAt,value
2023-04-16T00:02:14.812Z,17.65
2023-04-16T00:04:42.273Z,16.27
2023-04-16T00:07:09.621Z,16.40
2023-04-16T00:09:36.916Z,17.90
2023-04-16T00:12:04.351Z,15.45
2023-04-16T00:14:31.598Z,18.20
2023-04-16T00:16:58.937Z,18.60
2023-04-16T00:19:26.244Z,15.15
2023-04-16T00:21:53.609Z,14.20
2023-04-16T00:24:20.845Z,16.17
2023-04-16T00:26:48.124Z,16.25
2023-04-16T00:29:15.648Z,16.67
2023-04-16T00:31:42.907Z,15.95
2023-04-16T00:34:10.403Z,15.45
2023-04-16T00:36:37.727Z,14.85
2023-04-16T00:39:05.692Z,14.43
2023-04-16T00:41:32.934Z,13.85
2023-04-16T00:44:00.195Z,14.63
2023-04-16T00:46:27.512Z,13.23
2023-04-16T00:48:54.858Z,12.63
2023-04-16T00:51:22.088Z,15.18
2023-04-16T00:53:49.436Z,12.88
2023-04-16T00:56:17.772Z,14.40
2023-04-16T00:58:45.261Z,13.80
2023-04-16T01:01:14.505Z,14.00
2023-04-16T01:03:46.372Z,13.15
2023-04-16T01:06:14.047Z,12.73
2023-04-16T01:08:41.315Z,12.20
2023-04-16T01:11:08.721Z,13.13
2023-04-16T01:13:39.359Z,13.57
2023-04-16T01:16:08.173Z,15.45
2023-04-16T01:18:35.827Z,15.48
2023-04-16T01:21:04.128Z,15.70
2023-04-16T01:23:31.692Z,14.48
2023-04-16T01:25:59.070Z,14.00
2023-04-16T01:28:26.388Z,16.38
2023-04-16T01:30:53.666Z,14.32
2023-04-16T01:33:41.198Z,15.52
2023-04-16T01:36:09.049Z,16.05
2023-04-16T01:38:36.692Z,15.10
2023-04-16T01:41:03.975Z,13.68
2023-04-16T01:43:31.258Z,13.95
2023-04-16T01:46:29.724Z,16.65
2023-04-16T01:48:57.690Z,16.13
2023-04-16T01:51:24.980Z,15.98
2023-04-16T01:53:52.320Z,15.00
2023-04-16T01:56:19.587Z,14.63
2023-04-16T01:58:47.548Z,13.13
2023-04-16T02:01:16.806Z,14.70
2023-04-16T02:03:45.359Z,13.77
2023-04-16T02:06:13.007Z,13.85
2023-04-16T02:08:40.993Z,15.35
2023-04-16T02:11:08.342Z,15.45
2023-04-16T02:13:36.071Z,15.75
2023-04-16T02:16:03.428Z,13.05
2023-04-16T02:18:51.192Z,13.65
2023-04-16T02:21:20.574Z,13.15
2023-04-16T02:23:51.683Z,13.70
2023-04-16T02:26:23.104Z,12.95
2023-04-16T02:28:51.145Z,12.25
2023-04-16T02:31:22.429Z,11.90
2023-04-16T02:33:50.023Z,12.07
2023-04-16T02:36:17.303Z,14.10
2023-04-16T02:38:44.534Z,14.20
2023-04-16T02:41:11.851Z,11.43
2023-04-16T02:43:39.160Z,10.52
2023-04-16T02:46:06.749Z,11.95
2023-04-16T02:48:34.150Z,12.85
2023-04-16T02:51:01.414Z,13.18
2023-04-16T02:53:28.719Z,10.10
2023-04-16T02:55:56.084Z,8.80
2023-04-16T02:58:24.798Z,9.70
2023-04-16T03:00:52.768Z,8.73
2023-04-16T03:03:20.553Z,9.90
2023-04-16T03:05:48.176Z,9.60
2023-04-16T03:08:16.947Z,10.63
2023-04-16T03:10:44.271Z,10.90
2023-04-16T03:13:11.548Z,9.63
2023-04-16T03:15:38.844Z,8.57
2023-04-16T03:18:06.270Z,8.90
2023-04-16T03:20:33.598Z,8.35
2023-04-16T03:23:01.286Z,7.85
2023-04-16T03:25:28.641Z,11.43
2023-04-16T03:27:56.833Z,8.55
2023-04-16T03:30:24.598Z,9.82
2023-04-16T03:32:52.114Z,8.95
2023-04-16T03:35:19.626Z,9.32
2023-04-16T03:37:46.969Z,9.65
2023-04-16T03:40:14.611Z,9.80
2023-04-16T03:42:42.576Z,9.35
2023-04-16T03:45:10.242Z,9.05
2023-04-16T03:47:38.724Z,9.00
2023-04-16T03:50:06.344Z,9.68
2023-04-16T03:52:33.818Z,8.93
2023-04-16T03:55:03.742Z,9.50
2023-04-16T03:57:31.973Z,10.55
2023-04-16T04:00:06.427Z,11.25
2023-04-16T04:02:41.762Z,13.25
2023-04-16T04:05:16.066Z,11.55
2023-04-16T04:07:44.618Z,12.38
2023-04-16T04:10:12.056Z,14.27
2023-04-16T04:12:41.998Z,14.68
2023-04-16T04:15:09.928Z,11.10
2023-04-16T04:17:37.255Z,12.20
2023-04-16T04:20:05.012Z,10.45
2023-04-16T04:22:32.390Z,12.20
2023-04-16T04:24:59.747Z,13.02
2023-04-16T04:27:29.301Z,12.80
2023-04-16T04:29:56.921Z,11.18
2023-04-16T04:32:24.991Z,14.43
2023-04-16T04:34:52.342Z,14.70
2023-04-16T04:37:19.609Z,14.20
2023-04-16T04:39:46.966Z,14.38
2023-04-16T04:42:14.330Z,12.98
2023-04-16T04:44:41.770Z,15.50
2023-04-16T04:47:09.676Z,15.02
2023-04-16T04:49:36.975Z,15.27
2023-04-16T04:52:04.250Z,18.58
2023-04-16T04:54:32.618Z,18.67
2023-04-16T04:57:00.168Z,16.60
2023-04-16T04:59:28.362Z,16.20
2023-04-16T05:01:55.879Z,15.00
2023-04-16T05:04:23.149Z,14.15
2023-04-16T05:06:50.502Z,19.60
2023-04-16T05:09:17.903Z,15.00
2023-04-16T05:11:45.146Z,16.52
2023-04-16T05:14:12.469Z,21.70
2023-04-16T05:16:39.787Z,17.98
2023-04-16T05:19:07.165Z,17.30
2023-04-16T05:21:34.617Z,17.58
2023-04-16T05:24:01.903Z,16.00
2023-04-16T05:26:29.269Z,17.35
2023-04-16T05:28:56.597Z,17.55
2023-04-16T05:31:24.150Z,16.17
2023-04-16T05:33:51.473Z,18.63
2023-04-16T05:36:18.750Z,14.43
2023-04-16T05:38:46.159Z,17.40
2023-04-16T05:41:13.410Z,17.05
2023-04-16T05:43:40.722Z,17.88
2023-04-16T05:46:08.060Z,16.50
2023-04-16T05:48:35.424Z,18.07
2023-04-16T05:51:02.859Z,17.33
2023-04-16T05:53:30.303Z,17.35
2023-04-16T05:55:57.585Z,17.08
2023-04-16T05:58:24.868Z,15.65
2023-04-16T06:00:52.207Z,17.80
2023-04-16T06:03:19.628Z,18.55
2023-04-16T06:05:47.012Z,19.48
2023-04-16T06:08:14.300Z,18.60
2023-04-16T06:10:41.607Z,19.05
2023-04-16T06:13:08.875Z,21.30
2023-04-16T06:15:36.129Z,22.55
2023-04-16T06:18:03.556Z,21.90
2023-04-16T06:20:31.035Z,23.73
2023-04-16T06:22:58.339Z,20.80
2023-04-16T06:25:25.794Z,20.63
2023-04-16T06:27:53.109Z,24.00
2023-04-16T06:30:20.619Z,20.02
2023-04-16T06:32:48.158Z,19.50
2023-04-16T06:35:15.504Z,18.92
2023-04-16T06:37:43.931Z,17.00
2023-04-16T06:40:11.534Z,18.70
2023-04-16T06:42:38.795Z,19.05
2023-04-16T06:45:06.797Z,18.98
2023-04-16T06:47:34.119Z,21.17
2023-04-16T06:50:01.385Z,18.50
2023-04-16T06:52:29.210Z,18.35
2023-04-16T06:54:56.592Z,17.00
2023-04-16T06:57:23.868Z,18.02
2023-04-16T06:59:51.264Z,15.45
2023-04-16T07:02:18.791Z,15.53
2023-04-16T07:04:46.323Z,14.55
2023-04-16T07:07:13.626Z,13.95
2023-04-16T07:09:41.060Z,13.85
2023-04-16T07:12:08.449Z,12.80
2023-04-16T07:14:35.714Z,14.23
2023-04-16T07:17:02.963Z,15.88
2023-04-16T07:19:32.604Z,13.98
2023-04-16T07:22:00.331Z,15.00
2023-04-16T07:24:27.662Z,13.15
2023-04-16T07:26:54.983Z,12.03
2023-04-16T07:29:22.245Z,12.43
2023-04-16T07:31:49.708Z,12.45
2023-04-16T07:34:17.071Z,12.68
2023-04-16T07:36:44.409Z,11.02
2023-04-16T07:39:12.335Z,12.17
2023-04-16T07:41:41.179Z,9.85
2023-04-16T07:44:08.507Z,11.18
2023-04-16T07:46:45.513Z,9.80
2023-04-16T07:49:14.552Z,10.15
2023-04-16T07:51:41.880Z,9.07
2023-04-16T07:54:09.231Z,9.27
2023-04-16T07:56:36.504Z,9.60
2023-04-16T07:59:18.543Z,6.85
2023-04-16T08:01:49.824Z,8.63
2023-04-16T08:04:23.133Z,5.87
2023-04-16T08:06:51.544Z,6.57
2023-04-16T08:09:22.750Z,8.32
2023-04-16T08:11:50.159Z,5.15
2023-04-16T08:14:17.668Z,5.47
2023-04-16T08:16:45.131Z,8.10
2023-04-16T08:19:12.749Z,8.70
2023-04-16T08:21:40.542Z,7.25
2023-04-16T08:24:08.053Z,7.45
2023-04-16T08:26:35.427Z,6.82
2023-04-16T08:29:02.727Z,5.97
2023-04-16T08:31:30.053Z,7.05
2023-04-16T08:33:57.382Z,8.98
2023-04-16T08:36:24.620Z,7.47
2023-04-16T08:38:52.360Z,6.25
2023-04-16T08:41:19.680Z,7.40
2023-04-16T08:43:47.102Z,7.00
2023-04-16T08:46:15.374Z,7.97
2023-04-16T08:48:43.638Z,9.10
2023-04-16T08:51:11.194Z,7.10
2023-04-16T08:53:54.002Z,5.70
2023-04-16T08:56:22.974Z,6.35
2023-04-16T08:58:50.874Z,7.28
2023-04-16T09:01:18.771Z,5.47
2023-04-16T09:03:47.387Z,8.98
2023-04-16T09:06:16.399Z,11.13
2023-04-16T09:08:46.741Z,7.45
2023-04-16T09:11:14.152Z,7.60
2023-04-16T09:13:41.480Z,8.88
2023-04-16T09:16:09.527Z,7.90
2023-04-16T09:18:36.821Z,6.27
2023-04-16T09:21:04.800Z,7.28
2023-04-16T09:23:32.143Z,7.93
2023-04-16T09:25:59.440Z,6.35
2023-04-16T09:28:43.398Z,6.22
2023-04-16T09:31:12.322Z,6.60
2023-04-16T09:33:39.617Z,6.70
2023-04-16T09:36:07.615Z,7.80
2023-04-16T09:38:51.524Z,7.57
2023-04-16T09:41:19.088Z,12.02
2023-04-16T09:43:59.207Z,8.30
2023-04-16T09:46:30.776Z,7.07
2023-04-16T09:48:58.292Z,7.28
2023-04-16T09:51:27.026Z,6.45
2023-04-16T09:53:54.954Z,8.05
2023-04-16T09:56:24.972Z,6.20
2023-04-16T09:58:57.618Z,7.50
2023-04-16T10:01:25.506Z,8.07
2023-04-16T10:03:54.170Z,7.95
2023-04-16T10:06:22.989Z,6.40
2023-04-16T10:08:51.400Z,6.37
2023-04-16T10:11:19.315Z,5.65
2023-04-16T10:13:46.677Z,8.02
2023-04-16T10:16:14.006Z,7.53
2023-04-16T10:18:42.350Z,7.30
2023-04-16T10:21:12.197Z,7.00
2023-04-16T10:23:40.035Z,5.60
2023-04-16T10:26:07.428Z,4.70
2023-04-16T10:28:37.582Z,5.10
2023-04-16T10:31:07.642Z,3.75
2023-04-16T10:33:36.587Z,2.67
2023-04-16T10:36:14.176Z,3.50
2023-04-16T10:38:45.352Z,4.07
2023-04-16T10:41:12.760Z,4.10
2023-04-16T10:43:42.665Z,5.28
2023-04-16T10:46:26.819Z,4.03
2023-04-16T10:48:54.582Z,3.30
2023-04-16T10:51:33.111Z,2.15
2023-04-16T10:54:04.239Z,3.50
2023-04-16T10:56:35.342Z,3.45
2023-04-16T10:59:06.500Z,4.83
2023-04-16T11:01:55.082Z,2.55
2023-04-16T11:04:25.446Z,3.13
2023-04-16T11:07:11.685Z,3.20
2023-04-16T11:10:02.135Z,2.50
2023-04-16T11:12:29.369Z,2.67
2023-04-16T11:15:15.634Z,3.58
2023-04-16T11:17:46.869Z,2.78
2023-04-16T11:20:27.752Z,3.00
2023-04-16T11:22:56.698Z,2.95
2023-04-16T11:25:29.883Z,2.97
2023-04-16T11:27:59.289Z,3.13
2023-04-16T11:30:37.496Z,2.42
2023-04-16T11:33:08.779Z,3.08
2023-04-16T11:35:36.128Z,2.53
2023-04-16T11:38:04.170Z,2.43
2023-04-16T11:40:31.824Z,2.97
2023-04-16T11:43:14.304Z,2.05
2023-04-16T11:46:01.596Z,3.78
2023-04-16T11:48:49.646Z,3.67
2023-04-16T11:51:17.146Z,2.80
2023-04-16T11:53:52.908Z,3.05
2023-04-16T11:56:30.070Z,3.30
2023-04-16T11:59:10.275Z,4.15
2023-04-16T12:01:38.316Z,3.35
2023-04-16T12:04:06.373Z,2.13
2023-04-16T12:06:33.935Z,3.28
2023-04-16T12:09:01.493Z,2.90
2023-04-16T12:11:41.402Z,3.00
2023-04-16T12:14:09.358Z,2.63
2023-04-16T12:16:36.725Z,2.50
2023-04-16T12:19:04.551Z,3.38
2023-04-16T12:21:45.026Z,2.55
2023-04-16T12:24:13.763Z,2.78
2023-04-16T12:26:42.783Z,3.70
2023-04-16T12:29:16.626Z,2.60
2023-04-16T12:31:44.375Z,3.35
2023-04-16T12:34:11.769Z,2.22
2023-04-16T12:36:39.138Z,3.40
2023-04-16T12:39:07.491Z,2.85
2023-04-16T12:41:36.940Z,2.67
2023-04-16T12:44:09.197Z,3.55
2023-04-16T12:46:37.539Z,2.05
2023-04-16T12:49:05.019Z,3.42
2023-04-16T12:51:33.309Z,3.60
2023-04-16T12:54:01.493Z,3.63
2023-04-16T12:56:28.739Z,3.17
2023-04-16T12:58:56.219Z,2.78
2023-04-16T13:01:23.679Z,2.53
2023-04-16T13:03:51.217Z,2.67
2023-04-16T13:06:18.752Z,4.30
2023-04-16T13:08:46.030Z,2.65
2023-04-16T13:11:13.447Z,3.60
2023-04-16T13:13:40.958Z,5.22
2023-04-16T13:16:08.735Z,3.83
2023-04-16T13:18:40.169Z,3.37
2023-04-16T13:21:07.457Z,3.85
2023-04-16T13:23:35.268Z,2.85
2023-04-16T13:26:02.620Z,2.47
2023-04-16T13:28:29.862Z,3.33
2023-04-16T13:30:57.507Z,2.73
2023-04-16T13:33:25.966Z,4.22
2023-04-16T13:35:53.276Z,2.65
2023-04-16T13:38:20.558Z,3.13
2023-04-16T13:40:47.805Z,2.63
2023-04-16T13:43:16.643Z,4.40
2023-04-16T13:45:43.992Z,4.28
2023-04-16T13:48:11.332Z,3.92
2023-04-16T13:50:38.590Z,3.95
2023-04-16T13:53:05.869Z,4.35
2023-04-16T13:55:33.167Z,2.93
2023-04-16T13:58:00.494Z,3.22
2023-04-16T14:00:27.790Z,3.30
2023-04-16T14:02:55.209Z,3.72
2023-04-16T14:05:25.137Z,2.80
2023-04-16T14:07:53.862Z,2.60
2023-04-16T14:10:21.274Z,1.50
2023-04-16T14:12:48.561Z,3.60
2023-04-16T14:15:15.907Z,2.28
2023-04-16T14:17:43.957Z,4.65
2023-04-16T14:20:12.809Z,3.30
2023-04-16T14:22:40.170Z,2.67
2023-04-16T14:25:07.628Z,2.38
2023-04-16T14:27:35.158Z,3.75
2023-04-16T14:30:02.466Z,2.83
2023-04-16T14:32:30.628Z,3.07
2023-04-16T14:34:57.969Z,2.22
2023-04-16T14:37:26.352Z,2.85
2023-04-16T14:39:54.107Z,4.13
2023-04-16T14:42:22.422Z,2.75
2023-04-16T14:44:49.790Z,2.67
2023-04-16T14:47:17.103Z,3.33
2023-04-16T14:49:44.382Z,4.13
2023-04-16T14:52:11.684Z,3.72
2023-04-16T14:54:38.948Z,2.65
2023-04-16T14:57:06.223Z,3.47
2023-04-16T14:59:33.580Z,3.67
2023-04-16T15:02:01.137Z,3.67
2023-04-16T15:04:28.598Z,3.92
2023-04-16T15:06:59.043Z,2.72
2023-04-16T15:09:27.551Z,4.10
2023-04-16T15:11:54.891Z,3.17
2023-04-16T15:14:22.174Z,3.85
2023-04-16T15:16:49.650Z,3.47
2023-04-16T15:19:17.690Z,3.38
2023-04-16T15:21:47.495Z,3.90
2023-04-16T15:24:15.964Z,4.03
2023-04-16T15:26:43.442Z,2.38
2023-04-16T15:29:10.841Z,2.83
2023-04-16T15:31:38.124Z,3.20
2023-04-16T15:34:05.587Z,3.37
2023-04-16T15:36:33.336Z,3.38
2023-04-16T15:39:00.708Z,3.28
2023-04-16T15:41:29.225Z,2.05
2023-04-16T15:43:56.505Z,2.67
2023-04-16T15:46:23.835Z,3.90
2023-04-16T15:48:51.178Z,3.35
2023-04-16T15:51:18.468Z,1.85
2023-04-16T15:53:45.881Z,2.53
2023-04-16T15:56:13.191Z,3.05
2023-04-16T15:58:40.489Z,2.60
2023-04-16T16:01:07.735Z,2.92
2023-04-16T16:03:36.136Z,3.33
2023-04-16T16:06:08.498Z,4.28
2023-04-16T16:08:36.063Z,2.35
2023-04-16T16:11:03.351Z,4.80
2023-04-16T16:13:30.670Z,3.42
2023-04-16T16:15:57.973Z,5.90
2023-04-16T16:18:25.211Z,3.72
2023-04-16T16:20:57.407Z,3.58
2023-04-16T16:23:25.156Z,3.13
2023-04-16T16:25:52.524Z,2.10
2023-04-16T16:28:20.611Z,2.78
2023-04-16T16:30:48.088Z,2.75
2023-04-16T16:33:15.468Z,2.42
2023-04-16T16:35:42.753Z,6.47
2023-04-16T16:38:10.023Z,3.25
2023-04-16T16:40:38.562Z,2.65
2023-04-16T16:43:05.962Z,2.45
2023-04-16T16:45:33.297Z,3.83
2023-04-16T16:48:00.666Z,3.20
2023-04-16T16:50:27.939Z,3.00
2023-04-16T16:52:55.262Z,3.35
2023-04-16T16:55:22.673Z,4.15
2023-04-16T16:57:50.117Z,3.42
2023-04-16T17:00:19.968Z,4.83
2023-04-16T17:02:48.360Z,5.55
2023-04-16T17:05:15.761Z,5.53
2023-04-16T17:07:43.059Z,6.00
2023-04-16T17:10:13.090Z,5.55
2023-04-16T17:12:40.853Z,5.37
2023-04-16T17:15:08.576Z,5.45
2023-04-16T17:17:35.987Z,4.95
2023-04-16T17:20:08.897Z,6.45
2023-04-16T17:22:37.071Z,5.63
2023-04-16T17:25:04.757Z,6.43
2023-04-16T17:27:35.164Z,6.53
2023-04-16T17:30:03.134Z,6.93
2023-04-16T17:32:32.488Z,8.13
2023-04-16T17:35:04.513Z,10.98
2023-04-16T17:37:32.060Z,8.33
2023-04-16T17:39:59.555Z,7.57
2023-04-16T17:42:26.807Z,8.02
2023-04-16T17:44:54.114Z,6.65
2023-04-16T17:47:21.483Z,6.28
2023-04-16T17:49:48.868Z,7.80
2023-04-16T17:52:16.317Z,13.15
2023-04-16T17:54:43.738Z,12.35
2023-04-16T17:57:11.163Z,12.10
2023-04-16T17:59:38.493Z,11.05
2023-04-16T18:02:06.018Z,12.23
2023-04-16T18:04:33.513Z,11.68
2023-04-16T18:07:00.974Z,7.15
2023-04-16T18:09:28.345Z,9.18
2023-04-16T18:11:56.755Z,9.05
2023-04-16T18:14:24.142Z,8.33
2023-04-16T18:16:51.423Z,8.50
2023-04-16T18:19:18.712Z,10.50
2023-04-16T18:21:46.051Z,12.88
2023-04-16T18:24:13.973Z,10.77
2023-04-16T18:26:41.478Z,9.93
2023-04-16T18:29:09.195Z,9.55
2023-04-16T18:31:36.713Z,10.73
2023-04-16T18:34:04.114Z,10.15
2023-04-16T18:36:31.644Z,8.77
2023-04-16T18:39:01.475Z,10.60
2023-04-16T18:41:43.745Z,13.38
2023-04-16T18:44:11.193Z,11.80
2023-04-16T18:46:38.538Z,9.60
2023-04-16T18:49:05.981Z,11.88
2023-04-16T18:51:33.279Z,9.83
2023-04-16T18:54:00.573Z,10.27
2023-04-16T18:56:29.762Z,12.98
2023-04-16T18:58:57.063Z,10.68
2023-04-16T19:01:24.354Z,9.38
2023-04-16T19:03:51.680Z,8.77
2023-04-16T19:06:18.964Z,7.75
2023-04-16T19:08:46.290Z,9.20
2023-04-16T19:11:13.588Z,5.95
2023-04-16T19:13:40.891Z,7.10
2023-04-16T19:16:11.536Z,5.77
2023-04-16T19:18:39.153Z,6.20
2023-04-16T19:21:07.165Z,5.13
2023-04-16T19:23:34.519Z,6.57
2023-04-16T19:26:01.860Z,4.30
2023-04-16T19:28:29.195Z,8.93
2023-04-16T19:30:56.456Z,4.18
2023-04-16T19:33:23.767Z,4.68
2023-04-16T19:35:51.047Z,3.28
2023-04-16T19:38:18.370Z,4.82
2023-04-16T19:40:46.746Z,6.47
2023-04-16T19:43:14.173Z,4.93
2023-04-16T19:45:48.334Z,5.00
2023-04-16T19:48:15.847Z,5.53
2023-04-16T19:50:43.267Z,5.38
2023-04-16T19:53:11.175Z,4.80
2023-04-16T19:55:41.798Z,4.68
2023-04-16T19:58:09.321Z,4.07
2023-04-16T20:00:37.842Z,5.47
2023-04-16T20:03:05.552Z,5.05
2023-04-16T20:05:32.931Z,4.67
2023-04-16T20:08:00.396Z,4.80
2023-04-16T20:10:27.865Z,5.25
2023-04-16T20:12:55.154Z,6.38
2023-04-16T20:15:22.490Z,5.03
2023-04-16T20:17:49.975Z,5.70
2023-04-16T20:20:17.446Z,6.47
2023-04-16T20:22:44.792Z,4.70
2023-04-16T20:25:14.495Z,5.00
2023-04-16T20:27:41.821Z,5.75
2023-04-16T20:30:09.467Z,5.77
2023-04-16T20:32:36.731Z,4.63
2023-04-16T20:35:05.516Z,8.10
2023-04-16T20:37:38.062Z,6.65
2023-04-16T20:40:09.556Z,5.25
2023-04-16T20:42:36.858Z,6.23
2023-04-16T20:45:04.944Z,7.38
2023-04-16T20:47:34.849Z,6.32
2023-04-16T20:50:02.908Z,5.43
2023-04-16T20:52:30.173Z,6.68
2023-04-16T20:54:57.887Z,7.17
2023-04-16T20:57:25.856Z,8.70
2023-04-16T20:59:53.204Z,6.68
2023-04-16T21:02:21.095Z,7.30
2023-04-16T21:04:48.534Z,5.78
2023-04-16T21:07:15.915Z,8.27
2023-04-16T21:09:43.240Z,5.45
2023-04-16T21:12:10.538Z,4.65
2023-04-16T21:14:37.867Z,8.45
2023-04-16T21:17:05.239Z,6.30
2023-04-16T21:19:32.531Z,5.83
2023-04-16T21:21:59.776Z,5.97
2023-04-16T21:24:27.056Z,6.57
2023-04-16T21:26:54.297Z,7.65
2023-04-16T21:29:21.591Z,6.68
2023-04-16T21:31:48.923Z,6.77
2023-04-16T21:34:16.371Z,6.60
2023-04-16T21:36:43.732Z,9.15
2023-04-16T21:39:11.557Z,6.88
2023-04-16T21:41:39.074Z,8.90
2023-04-16T21:44:06.410Z,9.40
2023-04-16T21:46:33.721Z,9.93
2023-04-16T21:49:01.373Z,6.57
2023-04-16T21:51:31.376Z,6.82
2023-04-16T21:53:58.694Z,6.80
2023-04-16T21:56:26.099Z,7.33
2023-04-16T21:58:53.351Z,7.30
2023-04-16T22:01:20.737Z,7.20
2023-04-16T22:03:50.766Z,7.53
2023-04-16T22:06:18.413Z,7.50
2023-04-16T22:08:45.727Z,6.97
2023-04-16T22:11:13.063Z,7.97
2023-04-16T22:13:42.368Z,7.55
2023-04-16T22:16:11.780Z,6.22
2023-04-16T22:18:41.097Z,6.68
2023-04-16T22:21:08.424Z,6.73
2023-04-16T22:23:35.964Z,8.25
2023-04-16T22:26:04.169Z,6.78
2023-04-16T22:28:31.575Z,7.72
2023-04-16T22:30:58.828Z,7.40
2023-04-16T22:33:29.042Z,8.53
2023-04-16T22:35:56.315Z,7.47
2023-04-16T22:38:23.785Z,7.57
2023-04-16T22:40:51.052Z,8.05
2023-04-16T22:43:18.321Z,8.82
2023-04-16T22:45:48.696Z,8.53
2023-04-16T22:48:16.457Z,8.77
2023-04-16T22:50:48.638Z,7.10
2023-04-16T22:53:16.056Z,8.27
2023-04-16T22:55:43.307Z,7.40
2023-04-16T22:58:10.731Z,7.20
2023-04-16T23:00:38.150Z,6.60
2023-04-16T23:03:05.576Z,7.85
2023-04-16T23:05:33.152Z,8.65
2023-04-16T23:08:01.193Z,6.82
2023-04-16T23:10:28.465Z,9.10
2023-04-16T23:12:55.942Z,8.30
2023-04-16T23:15:23.206Z,7.13
2023-04-16T23:17:50.547Z,8.18
2023-04-16T23:20:17.885Z,7.15
2023-04-16T23:22:45.272Z,7.50
2023-04-16T23:25:12.664Z,6.55
2023-04-16T23:27:39.956Z,9.40
2023-04-16T23:30:08.333Z,7.93
2023-04-16T23:32:35.856Z,8.05
2023-04-16T23:35:03.228Z,8.10
2023-04-16T23:37:30.509Z,6.97
2023-04-16T23:39:57.779Z,8.93
2023-04-16T23:42:25.033Z,8.10
2023-04-16T23:44:52.385Z,8.30
2023-04-16T23:47:19.622Z,7.60
2023-04-16T23:49:46.932Z,7.45
2023-04-16T23:52:14.265Z,8.25
2023-04-16T23:54:41.514Z,7.30
2023-04-16T23:57:08.895Z,10.70
2023-04-16T23:59:36.181Z,7.30
